Portada
METAR-TAF:

METAR-TAF

Aeroports :

Taiyuan, Xina

latitud: 37-47N, longitud: 112-33E, altitud: 779 m

Observació

L'informe es va fer fa 34 minuts, a les 02:30 UTC
Vent 8 kt del Est/Nord-Est
Temperatura 2°C
Humitat 80%
Pressió 1026 hPa
Visibilitat: 4000 m
boirina

METAR: ZBYN 270230Z 07004MPS 4000 BR NSC 02/M01 Q1026 NOSIG

Hora: 11:04 (03:04 UTC)

Pronòstic

L'informe es va fer fa 4 hores i 48 minuts, a les 22:16 UTC
Pronòstic vàlid del 27 a les 00 UTC al 27 a les 24 UTC
Vent 6 kt del Est
Visibilitat: 3000 m
boirina
Temporalment
l' 27 a les 05 UTC al 27 a les 09 UTC
pluja, neu, boirina

TAF: ZBYN 262216Z 2700/2724 09003MPS 3000 BR NSC TX05/2708Z TNM03/2722Z TEMPO 2705/2709 -RASN BR

Observacions i pronòstics meteorològics de més de 4000 aeroports (METAR i TAF).

Les estacions disponibles són els punts grocs i vermells al mapa.

Posi el ratolí al punt desitjat per veure el nom de l'estació.

Feu clic per veure les observacions i els pronòstics meteorològics.

Per canviar el mapa: feu clic els botons verds amb una creu de color negre per apropar; al botó verd amb un guió per allunyar la imatge; o en les fletxes verdes per a mapes adjacents.


METAR-TAF: